createdAt,value
2023-12-21T00:01:29.689Z,997.18161
2023-12-21T00:16:31.878Z,996.47937
2023-12-21T00:31:34.100Z,1002.83537
2023-12-21T00:46:36.268Z,969.17858
2023-12-21T01:01:38.628Z,969.17858
2023-12-21T01:16:40.929Z,947.12232
2023-12-21T01:31:43.478Z,945.85611
2023-12-21T01:46:45.840Z,943.96314
2023-12-21T02:01:48.183Z,918.23541
2023-12-21T02:16:50.232Z,926.04762
2023-12-21T02:31:52.577Z,929.69826
2023-12-21T02:46:54.752Z,929.69826
2023-12-21T03:01:56.830Z,933.9939
2023-12-21T03:16:59.006Z,938.32941
2023-12-21T03:32:01.101Z,940.82497
2023-12-21T03:47:03.090Z,938.95206
2023-12-21T04:02:05.349Z,942.07773
2023-12-21T04:17:07.489Z,927.26131
2023-12-21T04:32:09.672Z,920.02651
2023-12-21T04:47:22.453Z,917.04522
2023-12-21T05:02:26.237Z,920.62509
2023-12-21T05:17:28.425Z,923.02724
2023-12-21T05:32:30.677Z,920.62509
2023-12-21T05:47:33.051Z,917.04522
2023-12-21T06:02:35.382Z,912.90372
2023-12-21T06:17:37.708Z,908.79947
2023-12-21T06:32:39.824Z,903.57649
2023-12-21T06:47:41.975Z,915.2657
2023-12-21T07:02:44.251Z,919.4287
2023-12-21T07:17:46.254Z,915.8581
2023-12-21T07:32:48.613Z,920.02651
2023-12-21T07:47:50.787Z,931.5344
2023-12-21T08:02:52.852Z,929.08783
2023-12-21T08:17:55.182Z,934.6108
2023-12-21T08:32:57.236Z,942.70536
2023-12-21T08:47:59.286Z,938.95206
2023-12-21T09:03:01.273Z,935.22852
2023-12-21T09:18:03.332Z,933.37781
2023-12-21T09:33:05.393Z,942.07773
2023-12-21T09:48:07.492Z,948.39192
2023-12-21T10:03:09.769Z,949.66493
2023-12-21T10:18:12.081Z,954.1475
2023-12-21T10:33:14.356Z,958.02352
2023-12-21T10:48:16.377Z,970.50804
2023-12-21T11:03:18.677Z,971.84116
2023-12-21T11:18:20.777Z,975.19002
2023-12-21T11:33:22.842Z,977.88578
2023-12-21T11:48:24.902Z,982.63939
2023-12-21T12:03:26.913Z,973.17794
2023-12-21T12:18:29.012Z,976.53604
2023-12-21T12:33:31.177Z,977.21044
2023-12-21T12:48:33.451Z,978.56205
2023-12-21T13:03:35.521Z,977.21044
2023-12-21T13:18:37.513Z,973.17794
2023-12-21T13:33:39.632Z,968.51522
2023-12-21T13:48:41.810Z,973.17794
2023-12-21T14:03:43.903Z,969.17858
2023-12-21T14:18:45.919Z,964.55401
2023-12-21T14:33:47.990Z,963.89696
2023-12-21T14:48:50.084Z,956.08158
2023-12-21T15:03:52.197Z,962.58553
2023-12-21T15:18:54.252Z,943.96314
2023-12-21T15:33:56.247Z,949.028
2023-12-21T15:48:58.309Z,954.1475
2023-12-21T16:04:00.433Z,958.67259
2023-12-21T16:19:02.505Z,959.97336
2023-12-21T16:34:04.584Z,967.1912
2023-12-21T16:49:06.777Z,956.08158
2023-12-21T17:04:08.937Z,952.22123
2023-12-21T17:19:11.176Z,958.02352
2023-12-21T17:34:17.382Z,960.62507
2023-12-21T17:49:21.583Z,956.08158
2023-12-21T18:04:23.634Z,971.84116
2023-12-21T18:19:25.711Z,950.94136
2023-12-21T18:34:27.948Z,949.66493
2023-12-21T18:49:30.193Z,975.86257
2023-12-21T19:04:32.460Z,966.53055
2023-12-21T19:19:34.658Z,970.50804
2023-12-21T19:34:36.818Z,945.85611
2023-12-21T19:49:38.886Z,935.22852
2023-12-21T20:04:41.109Z,926.04762
2023-12-21T20:19:43.350Z,916.45128
2023-12-21T20:34:45.436Z,921.22446
2023-12-21T20:49:47.487Z,909.38353
2023-12-21T21:04:49.692Z,891.05843
2023-12-21T21:19:51.894Z,863.3318
2023-12-21T21:34:53.988Z,858.617
2023-12-21T21:49:56.117Z,855.50231
2023-12-21T22:04:58.487Z,848.32184
2023-12-21T22:20:00.647Z,840.76104
2023-12-21T22:35:02.676Z,842.76405
2023-12-21T22:50:04.729Z,844.77662
2023-12-21T23:05:06.968Z,839.76311
2023-12-21T23:20:09.160Z,852.41014
2023-12-21T23:35:17.658Z,858.617
2023-12-21T23:50:21.662Z,846.29236
